Time,TemperatureF,DewpointF,PressureIn,WindDirection,WindDirectionDegrees,WindSpeedMPH,WindSpeedGustMPH,Humidity,HourlyPrecipIn,Conditions,Clouds,dailyrainin,SoftwareType,DateUTC
2013-02-25 00:01:00,7.0,3.0,-100.00,NE,50,0.0,1.0,80,-99.99,,,-99.99,,2013-02-25 07:01:00,
2013-02-25 00:11:00,7.0,3.0,-100.00,NE,50,0.0,1.0,80,-99.99,,,-99.99,,2013-02-25 07:11:00,
2013-02-25 00:21:00,5.0,1.0,-100.00,East,96,5.0,5.0,81,-99.99,,,-99.99,,2013-02-25 07:21:00,
2013-02-25 00:31:00,5.0,1.0,-100.00,ESE,109,2.0,5.0,80,-99.99,,,-99.99,,2013-02-25 07:31:00,
2013-02-25 00:41:00,5.0,1.0,-100.00,ESE,112,1.0,2.0,81,-99.99,,,-99.99,,2013-02-25 07:41:00,
2013-02-25 00:51:00,5.0,1.0,-100.00,ESE,112,1.0,2.0,81,-99.99,,,-99.99,,2013-02-25 07:51:00,
2013-02-25 01:01:00,5.0,1.0,-100.00,ESE,116,2.0,3.0,82,-99.99,,,-99.99,,2013-02-25 08:01:00,
2013-02-25 01:11:00,5.0,1.0,-100.00,ESE,116,2.0,3.0,82,-99.99,,,-99.99,,2013-02-25 08:11:00,
2013-02-25 01:21:00,5.0,0.0,-100.00,ENE,74,0.0,4.0,81,-99.99,,,-99.99,,2013-02-25 08:21:00,
2013-02-25 01:31:00,2.0,-2.0,-100.00,ENE,74,2.0,3.0,80,-99.99,,,-99.99,,2013-02-25 08:31:00,
2013-02-25 01:41:00,3.0,-1.0,-100.00,ENE,77,0.0,3.0,82,-99.99,,,-99.99,,2013-02-25 08:41:00,
2013-02-25 01:52:00,3.0,-1.0,-100.00,ENE,77,0.0,3.0,82,-99.99,,,-99.99,,2013-02-25 08:52:00,
2013-02-25 02:01:00,3.0,-1.0,-100.00,East,82,3.0,4.0,82,-99.99,,,-99.99,,2013-02-25 09:01:00,
2013-02-25 02:12:00,3.0,-1.0,-100.00,East,81,1.0,3.0,82,-99.99,,,-99.99,,2013-02-25 09:12:00,
2013-02-25 02:21:00,3.0,-1.0,-100.00,East,81,1.0,3.0,82,-99.99,,,-99.99,,2013-02-25 09:21:00,
2013-02-25 02:31:00,1.0,-3.0,-100.00,East,85,3.0,4.0,81,-99.99,,,-99.99,,2013-02-25 09:31:00,
2013-02-25 02:41:00,0.0,-4.0,-100.00,East,87,2.0,4.0,83,-99.99,,,-99.99,,2013-02-25 09:41:00,
2013-02-25 02:51:00,0.0,-4.0,-100.00,East,87,2.0,4.0,83,-99.99,,,-99.99,,2013-02-25 09:51:00,
2013-02-25 03:01:00,0.0,-4.0,-100.00,NE,40,2.0,4.0,81,-99.99,,,-99.99,,2013-02-25 10:01:00,
2013-02-25 03:11:00,0.0,-4.0,-100.00,NE,45,3.0,4.0,81,-99.99,,,-99.99,,2013-02-25 10:11:00,
2013-02-25 03:41:00,1.0,-2.0,-100.00,NNE,31,1.0,1.0,84,-99.99,,,-99.99,,2013-02-25 10:41:00,
2013-02-25 03:52:00,1.0,-2.0,-100.00,NNE,31,1.0,1.0,84,-99.99,,,-99.99,,2013-02-25 10:52:00,
2013-02-25 04:01:00,-1.0,-5.0,-100.00,ENE,61,3.0,4.0,82,-99.99,,,-99.99,,2013-02-25 11:01:00,
2013-02-25 04:11:00,-1.0,-5.0,-100.00,East,86,2.0,4.0,82,-99.99,,,-99.99,,2013-02-25 11:11:00,
2013-02-25 04:21:00,-1.0,-5.0,-100.00,East,86,2.0,4.0,82,-99.99,,,-99.99,,2013-02-25 11:21:00,
2013-02-25 04:41:00,-1.0,-5.0,-100.00,East,92,3.0,5.0,83,-99.99,,,-99.99,,2013-02-25 11:41:00,
2013-02-25 04:52:00,-1.0,-5.0,-100.00,East,92,3.0,5.0,83,-99.99,,,-99.99,,2013-02-25 11:52:00,
2013-02-25 05:01:00,-2.0,-6.0,-100.00,East,86,4.0,5.0,82,-99.99,,,-99.99,,2013-02-25 12:01:00,
2013-02-25 05:11:00,-1.0,-5.0,-100.00,ESE,114,4.0,5.0,84,-99.99,,,-99.99,,2013-02-25 12:11:00,
2013-02-25 05:21:00,-1.0,-5.0,-100.00,ESE,114,4.0,5.0,84,-99.99,,,-99.99,,2013-02-25 12:21:00,
2013-02-25 05:32:00,-3.0,-7.0,-100.00,East,90,1.0,2.0,83,-99.99,,,-99.99,,2013-02-25 12:32:00,
2013-02-25 05:41:00,-3.0,-7.0,-100.00,East,90,1.0,2.0,83,-99.99,,,-99.99,,2013-02-25 12:41:00,
2013-02-25 05:53:00,-2.0,-6.0,-100.00,East,81,3.0,4.0,83,-99.99,,,-99.99,,2013-02-25 12:53:00,
2013-02-25 06:01:00,-2.0,-6.0,-100.00,East,90,5.0,5.0,83,-99.99,,,-99.99,,2013-02-25 13:01:00,
2013-02-25 06:22:00,-2.0,-6.0,-100.00,East,88,2.0,2.0,83,-99.99,,,-99.99,,2013-02-25 13:22:00,
2013-02-25 06:31:00,-2.0,-5.0,-100.00,East,79,1.0,2.0,83,-99.99,,,-99.99,,2013-02-25 13:31:00,
2013-02-25 06:42:00,-2.0,-5.0,-100.00,East,79,1.0,2.0,83,-99.99,,,-99.99,,2013-02-25 13:42:00,
2013-02-25 06:51:00,-2.0,-6.0,-100.00,East,79,2.0,3.0,83,-99.99,,,-99.99,,2013-02-25 13:51:00,
2013-02-25 07:02:00,-1.0,-5.0,-100.00,East,79,2.0,3.0,83,-99.99,,,-99.99,,2013-02-25 14:02:00,
2013-02-25 07:13:00,-2.0,-6.0,-100.00,East,92,4.0,4.0,83,-99.99,,,-99.99,,2013-02-25 14:13:00,
2013-02-25 07:21:00,-2.0,-6.0,-100.00,East,92,4.0,4.0,83,-99.99,,,-99.99,,2013-02-25 14:21:00,
2013-02-25 07:31:00,-2.0,-6.0,-100.00,East,92,4.0,4.0,83,-99.99,,,-99.99,,2013-02-25 14:31:00,
2013-02-25 07:41:00,0.0,-3.0,-100.00,ESE,104,1.0,4.0,83,-99.99,,,-99.99,,2013-02-25 14:41:00,
2013-02-25 07:52:00,1.0,-3.0,-100.00,East,96,5.0,5.0,83,-99.99,,,-99.99,,2013-02-25 14:52:00,
2013-02-25 08:02:00,1.0,-3.0,-100.00,East,96,5.0,5.0,83,-99.99,,,-99.99,,2013-02-25 15:02:00,
2013-02-25 08:11:00,1.0,-3.0,-100.00,East,96,5.0,5.0,83,-99.99,,,-99.99,,2013-02-25 15:11:00,
2013-02-25 08:21:00,1.0,-3.0,-100.00,ESE,115,4.0,5.0,83,-99.99,,,-99.99,,2013-02-25 15:21:00,
2013-02-25 08:32:00,3.0,-1.0,-100.00,ESE,110,4.0,6.0,82,-99.99,,,-99.99,,2013-02-25 15:32:00,
2013-02-25 08:41:00,3.0,-1.0,-100.00,ESE,110,4.0,6.0,82,-99.99,,,-99.99,,2013-02-25 15:41:00,
2013-02-25 08:51:00,3.0,-1.0,-100.00,East,83,5.0,5.0,81,-99.99,,,-99.99,,2013-02-25 15:51:00,
2013-02-25 09:01:00,6.0,1.0,-100.00,East,80,6.0,6.0,82,-99.99,,,-99.99,,2013-02-25 16:01:00,
2013-02-25 09:11:00,6.0,2.0,-100.00,East,85,4.0,7.0,81,-99.99,,,-99.99,,2013-02-25 16:11:00,
2013-02-25 09:21:00,6.0,2.0,-100.00,East,85,4.0,7.0,81,-99.99,,,-99.99,,2013-02-25 16:21:00,
2013-02-25 09:31:00,6.0,2.0,-100.00,East,85,4.0,7.0,81,-99.99,,,-99.99,,2013-02-25 16:31:00,
2013-02-25 09:41:00,10.0,4.0,-100.00,East,98,6.0,6.0,77,-99.99,,,-99.99,,2013-02-25 16:41:00,
2013-02-25 09:51:00,10.0,4.0,-100.00,East,98,6.0,6.0,77,-99.99,,,-99.99,,2013-02-25 16:51:00,
2013-02-25 10:01:00,13.0,7.0,-100.00,ESE,120,4.0,6.0,76,-99.99,,,-99.99,,2013-02-25 17:01:00,
2013-02-25 10:11:00,13.0,7.0,-100.00,ESE,120,4.0,6.0,76,-99.99,,,-99.99,,2013-02-25 17:11:00,
2013-02-25 10:21:00,15.0,8.0,-100.00,East,91,4.0,4.0,73,-99.99,,,-99.99,,2013-02-25 17:21:00,
2013-02-25 10:31:00,15.0,8.0,-100.00,East,91,4.0,4.0,73,-99.99,,,-99.99,,2013-02-25 17:31:00,
2013-02-25 10:41:00,19.0,11.0,-100.00,East,85,3.0,5.0,71,-99.99,,,-99.99,,2013-02-25 17:41:00,
2013-02-25 10:52:00,19.0,11.0,-100.00,East,85,3.0,5.0,71,-99.99,,,-99.99,,2013-02-25 17:52:00,
2013-02-25 11:01:00,19.0,11.0,-100.00,East,85,3.0,5.0,71,-99.99,,,-99.99,,2013-02-25 18:01:00,
2013-02-25 11:12:00,20.0,12.0,-100.00,NE,52,5.0,10.0,68,-99.99,,,-99.99,,2013-02-25 18:12:00,
2013-02-25 11:21:00,20.0,11.0,-100.00,NE,40,5.0,8.0,68,-99.99,,,-99.99,,2013-02-25 18:21:00,
2013-02-25 11:32:00,20.0,11.0,-100.00,NE,40,5.0,8.0,68,-99.99,,,-99.99,,2013-02-25 18:32:00,
2013-02-25 11:41:00,22.0,12.0,-100.00,North,0,5.0,11.0,65,-99.99,,,-99.99,,2013-02-25 18:41:00,
2013-02-25 11:51:00,22.0,11.0,-100.00,North,7,7.0,10.0,63,-99.99,,,-99.99,,2013-02-25 18:51:00,
2013-02-25 12:01:00,22.0,11.0,-100.00,North,7,7.0,10.0,63,-99.99,,,-99.99,,2013-02-25 19:01:00,
2013-02-25 12:11:00,23.0,12.0,-100.00,NNE,26,6.0,10.0,60,-99.99,,,-99.99,,2013-02-25 19:11:00,
2013-02-25 12:21:00,23.0,11.0,-100.00,NNE,26,6.0,9.0,59,-99.99,,,-99.99,,2013-02-25 19:21:00,
2013-02-25 12:31:00,23.0,11.0,-100.00,NNE,26,6.0,9.0,59,-99.99,,,-99.99,,2013-02-25 19:31:00,
2013-02-25 12:41:00,25.0,12.0,-100.00,ESE,105,4.0,9.0,59,-99.99,,,-99.99,,2013-02-25 19:41:00,
2013-02-25 12:52:00,25.0,11.0,-100.00,SE,136,4.0,7.0,54,-99.99,,,-99.99,,2013-02-25 19:52:00,
2013-02-25 13:01:00,25.0,11.0,-100.00,SE,136,4.0,7.0,54,-99.99,,,-99.99,,2013-02-25 20:01:00,
2013-02-25 13:11:00,26.0,13.0,-100.00,East,100,4.0,7.0,56,-99.99,,,-99.99,,2013-02-25 20:11:00,
2013-02-25 13:21:00,25.0,11.0,-100.00,East,101,5.0,8.0,54,-99.99,,,-99.99,,2013-02-25 20:21:00,
2013-02-25 13:31:00,27.0,10.0,-100.00,ESE,103,5.0,6.0,48,-99.99,,,-99.99,,2013-02-25 20:31:00,
2013-02-25 13:42:00,28.0,11.0,-100.00,ESE,123,5.0,7.0,49,-99.99,,,-99.99,,2013-02-25 20:42:00,
2013-02-25 13:52:00,28.0,13.0,-100.00,ENE,68,4.0,6.0,50,-99.99,,,-99.99,,2013-02-25 20:52:00,
2013-02-25 14:01:00,27.0,11.0,-100.00,ENE,78,9.0,9.0,50,-99.99,,,-99.99,,2013-02-25 21:01:00,
2013-02-25 14:11:00,28.0,11.0,-100.00,East,92,7.0,9.0,48,-99.99,,,-99.99,,2013-02-25 21:11:00,
2013-02-25 14:21:00,28.0,11.0,-100.00,East,92,7.0,9.0,48,-99.99,,,-99.99,,2013-02-25 21:21:00,
2013-02-25 14:31:00,28.0,10.0,-100.00,ESE,106,5.0,8.0,45,-99.99,,,-99.99,,2013-02-25 21:31:00,
2013-02-25 14:41:00,29.0,9.0,-100.00,ENE,66,2.0,6.0,41,-99.99,,,-99.99,,2013-02-25 21:41:00,
2013-02-25 14:51:00,29.0,10.0,-100.00,ESE,108,6.0,7.0,43,-99.99,,,-99.99,,2013-02-25 21:51:00,
2013-02-25 15:01:00,29.0,10.0,-100.00,ESE,108,6.0,7.0,43,-99.99,,,-99.99,,2013-02-25 22:01:00,
2013-02-25 15:11:00,29.0,9.0,-100.00,ENE,57,7.0,8.0,42,-99.99,,,-99.99,,2013-02-25 22:11:00,
2013-02-25 15:21:00,29.0,9.0,-100.00,ENE,57,7.0,8.0,42,-99.99,,,-99.99,,2013-02-25 22:21:00,
2013-02-25 15:31:00,29.0,9.0,-100.00,ENE,57,7.0,8.0,42,-99.99,,,-99.99,,2013-02-25 22:31:00,
2013-02-25 15:41:00,30.0,7.0,-100.00,NE,54,6.0,9.0,38,-99.99,,,-99.99,,2013-02-25 22:41:00,
2013-02-25 15:51:00,30.0,11.0,-100.00,NNW,341,5.0,7.0,43,-99.99,,,-99.99,,2013-02-25 22:51:00,
2013-02-25 16:01:00,29.0,9.0,-100.00,West,272,13.0,18.0,42,-99.99,,,-99.99,,2013-02-25 23:01:00,
2013-02-25 16:11:00,29.0,9.0,-100.00,West,272,13.0,18.0,42,-99.99,,,-99.99,,2013-02-25 23:11:00,
2013-02-25 16:22:00,29.0,9.0,-100.00,West,272,13.0,18.0,42,-99.99,,,-99.99,,2013-02-25 23:22:00,
2013-02-25 16:31:00,29.0,9.0,-100.00,WNW,295,10.0,14.0,43,-99.99,,,-99.99,,2013-02-25 23:31:00,
2013-02-25 16:41:00,28.0,7.0,-100.00,WNW,294,10.0,13.0,39,-99.99,,,-99.99,,2013-02-25 23:41:00,
2013-02-25 16:52:00,28.0,7.0,-100.00,WNW,294,10.0,13.0,39,-99.99,,,-99.99,,2013-02-25 23:52:00,
2013-02-25 17:01:00,28.0,9.0,-100.00,WNW,288,13.0,14.0,43,-99.99,,,-99.99,,2013-02-26 00:01:00,
2013-02-25 17:11:00,28.0,9.0,-100.00,WNW,288,13.0,14.0,43,-99.99,,,-99.99,,2013-02-26 00:11:00,
2013-02-25 17:21:00,28.0,9.0,-100.00,WNW,288,13.0,14.0,43,-99.99,,,-99.99,,2013-02-26 00:21:00,
2013-02-25 17:32:00,28.0,8.0,-100.00,WNW,285,12.0,13.0,43,-99.99,,,-99.99,,2013-02-26 00:32:00,
2013-02-25 17:41:00,28.0,8.0,-100.00,WNW,284,12.0,15.0,42,-99.99,,,-99.99,,2013-02-26 00:41:00,
2013-02-25 17:51:00,28.0,8.0,-100.00,WNW,284,12.0,15.0,42,-99.99,,,-99.99,,2013-02-26 00:51:00,
2013-02-25 18:01:00,27.0,9.0,-100.00,WNW,288,12.0,17.0,46,-99.99,,,-99.99,,2013-02-26 01:01:00,
2013-02-25 18:11:00,27.0,9.0,-100.00,WNW,288,12.0,17.0,46,-99.99,,,-99.99,,2013-02-26 01:11:00,
2013-02-25 18:21:00,25.0,9.0,-100.00,WNW,291,15.0,19.0,50,-99.99,,,-99.99,,2013-02-26 01:21:00,
2013-02-25 18:31:00,25.0,9.0,-100.00,WNW,291,15.0,19.0,50,-99.99,,,-99.99,,2013-02-26 01:31:00,
2013-02-25 18:41:00,25.0,10.0,-100.00,WNW,300,15.0,20.0,52,-99.99,,,-99.99,,2013-02-26 01:41:00,
2013-02-25 18:51:00,25.0,10.0,-100.00,WNW,300,15.0,20.0,52,-99.99,,,-99.99,,2013-02-26 01:51:00,
2013-02-25 19:01:00,25.0,10.0,-100.00,West,280,11.0,21.0,54,-99.99,,,-99.99,,2013-02-26 02:01:00,
2013-02-25 19:11:00,24.0,11.0,-100.00,WNW,290,16.0,19.0,56,-99.99,,,-99.99,,2013-02-26 02:11:00,
2013-02-25 19:21:00,23.0,11.0,-100.00,WNW,300,9.0,17.0,58,-99.99,,,-99.99,,2013-02-26 02:21:00,
2013-02-25 19:31:00,23.0,11.0,-100.00,WNW,298,7.0,12.0,60,-99.99,,,-99.99,,2013-02-26 02:31:00,
2013-02-25 19:41:00,23.0,11.0,-100.00,WNW,289,13.0,18.0,60,-99.99,,,-99.99,,2013-02-26 02:41:00,
2013-02-25 19:52:00,24.0,10.0,-100.00,West,278,8.0,18.0,54,-99.99,,,-99.99,,2013-02-26 02:52:00,
2013-02-25 20:00:00,23.0,10.0,-100.00,NW,309,7.0,11.0,56,-99.99,,,-99.99,,2013-02-26 03:00:00,
2013-02-25 20:01:00,22.0,10.0,-100.00,WNW,295,7.0,9.0,59,-99.99,,,-99.99,,2013-02-26 03:01:00,
2013-02-25 20:11:00,22.0,10.0,-100.00,WNW,295,7.0,9.0,59,-99.99,,,-99.99,,2013-02-26 03:11:00,
2013-02-25 20:21:00,22.0,10.0,-100.00,NW,307,8.0,11.0,58,-99.99,,,-99.99,,2013-02-26 03:21:00,
2013-02-25 20:31:00,23.0,10.0,-100.00,NW,309,7.0,11.0,56,-99.99,,,-99.99,,2013-02-26 03:31:00,
2013-02-25 20:41:00,23.0,10.0,-100.00,NW,309,7.0,11.0,56,-99.99,,,-99.99,,2013-02-26 03:41:00,
2013-02-25 20:51:00,23.0,10.0,-100.00,NW,309,7.0,11.0,56,-99.99,,,-99.99,,2013-02-26 03:51:00,
2013-02-25 21:32:00,22.0,13.0,-100.00,NW,313,12.0,15.0,65,-99.99,,,-99.99,,2013-02-26 04:32:00,
2013-02-25 21:42:00,23.0,13.0,-100.00,West,280,8.0,15.0,65,-99.99,,,-99.99,,2013-02-26 04:42:00,
2013-02-25 21:51:00,22.0,13.0,-100.00,WNW,294,16.0,19.0,67,-99.99,,,-99.99,,2013-02-26 04:51:00,
2013-02-25 22:01:00,22.0,13.0,-100.00,WNW,294,16.0,19.0,67,-99.99,,,-99.99,,2013-02-26 05:01:00,
2013-02-25 22:11:00,22.0,14.0,-100.00,WNW,284,5.0,12.0,69,-99.99,,,-99.99,,2013-02-26 05:11:00,
2013-02-25 22:21:00,22.0,14.0,-100.00,WNW,284,5.0,12.0,69,-99.99,,,-99.99,,2013-02-26 05:21:00,
2013-02-25 22:31:00,22.0,14.0,-100.00,WNW,284,5.0,12.0,69,-99.99,,,-99.99,,2013-02-26 05:31:00,
2013-02-25 22:42:00,23.0,14.0,-100.00,WNW,298,12.0,14.0,69,-99.99,,,-99.99,,2013-02-26 05:42:00,
2013-02-25 22:52:00,23.0,15.0,-100.00,WNW,299,13.0,18.0,71,-99.99,,,-99.99,,2013-02-26 05:52:00,
2013-02-25 23:01:00,23.0,15.0,-100.00,WNW,299,13.0,18.0,71,-99.99,,,-99.99,,2013-02-26 06:01:00,
2013-02-25 23:11:00,23.0,15.0,-100.00,WNW,299,13.0,18.0,71,-99.99,,,-99.99,,2013-02-26 06:11:00,
2013-02-25 23:21:00,22.0,15.0,-100.00,WNW,298,13.0,18.0,77,-99.99,,,-99.99,,2013-02-26 06:21:00,
2013-02-25 23:31:00,22.0,15.0,-100.00,WNW,298,13.0,18.0,77,-99.99,,,-99.99,,2013-02-26 06:31:00,
2013-02-25 23:41:00,22.0,16.0,-100.00,WNW,295,13.0,18.0,78,-99.99,,,-99.99,,2013-02-26 06:41:00,
2013-02-25 23:50:00,22.0,16.0,-100.00,WNW,285,13.0,16.0,78,-99.99,,,-99.99,,2013-02-26 06:50:00,
2013-02-25 23:51:00,21.0,16.0,-100.00,WNW,285,13.0,18.0,78,-99.99,,,-99.99,,2013-02-26 06:51:00,